Effingham, Kansas
Current Conditions -  °F | °C
As of 3:53 PM on Monday 20 Oct 2014 (Local Time) from KSTJ Reporting Station
Clear Clear  
Wind Chill: 76°   Ceiling: Unl
Heat Index: 76°   Visibility: 10mi
Dew Point: 39°   Wind: 7mph
Humidity: 26%   Direction: 350°N
Pressure: 30.03"   Gusts: NA
Location:  39.52°N, 95.4°W
Report Text: KSTJ 202053Z 35006KT 10SM CLR 24/04 A3003 RMK AO2 SLP165 T02440039 56014
Loading
Personal Weather Stations






























Interactive Weather Map
Tropical Storm Tracking
New forecast layout! Learn more

10-Day Weather Forecast

Advertisements
Track Severe Weather on mobile